createdAt,value
2022-08-25T00:00:21.409Z,17.20
2022-08-25T00:03:05.042Z,19.00
2022-08-25T00:05:33.599Z,17.80
2022-08-25T00:08:04.011Z,14.30
2022-08-25T00:10:35.345Z,14.90
2022-08-25T00:13:05.074Z,17.60
2022-08-25T00:15:33.210Z,16.60
2022-08-25T00:18:01.919Z,14.80
2022-08-25T00:20:30.049Z,17.20
2022-08-25T00:22:58.598Z,19.10
2022-08-25T00:25:27.140Z,16.90
2022-08-25T00:27:57.471Z,18.30
2022-08-25T00:30:25.641Z,16.40
2022-08-25T00:32:57.326Z,18.10
2022-08-25T00:35:26.755Z,23.10
2022-08-25T00:37:55.174Z,16.00
2022-08-25T00:40:26.294Z,15.00
2022-08-25T00:42:56.223Z,18.10
2022-08-25T00:45:25.022Z,16.10
2022-08-25T00:47:53.032Z,18.10
2022-08-25T00:50:22.897Z,17.90
2022-08-25T00:52:59.096Z,15.00
2022-08-25T00:55:31.443Z,17.70
2022-08-25T00:58:14.744Z,15.50
2022-08-25T01:00:47.436Z,14.80
2022-08-25T01:03:19.338Z,21.40
2022-08-25T01:05:48.081Z,17.60
2022-08-25T01:08:21.467Z,16.70
2022-08-25T01:10:51.252Z,22.20
2022-08-25T01:13:21.526Z,16.10
2022-08-25T01:15:53.657Z,18.10
2022-08-25T01:18:22.340Z,18.40
2022-08-25T01:20:52.916Z,19.50
2022-08-25T01:23:22.191Z,17.40
2022-08-25T01:26:07.878Z,15.30
2022-08-25T01:28:37.452Z,19.00
2022-08-25T01:31:05.469Z,17.50
2022-08-25T01:33:52.547Z,20.20
2022-08-25T01:36:22.104Z,15.70
2022-08-25T01:38:50.654Z,18.70
2022-08-25T01:41:31.855Z,22.80
2022-08-25T01:44:00.572Z,22.50
2022-08-25T01:46:28.780Z,18.20
2022-08-25T01:48:56.736Z,15.80
2022-08-25T01:51:28.225Z,22.40
2022-08-25T01:53:56.205Z,19.50
2022-08-25T01:56:24.241Z,16.10
2022-08-25T01:58:53.574Z,10.50
2022-08-25T02:01:24.566Z,16.80
2022-08-25T02:03:55.419Z,14.40
2022-08-25T02:06:30.018Z,16.30
2022-08-25T02:09:01.564Z,17.60
2022-08-25T02:11:29.906Z,27.50
2022-08-25T02:13:59.243Z,22.40
2022-08-25T02:16:31.303Z,27.20
2022-08-25T02:19:00.181Z,21.00
2022-08-25T02:21:28.642Z,20.70
2022-08-25T02:23:57.202Z,18.00
2022-08-25T02:26:25.560Z,18.60
2022-08-25T02:28:53.609Z,23.50
2022-08-25T02:31:23.677Z,22.20
2022-08-25T02:33:53.109Z,23.20
2022-08-25T02:36:21.325Z,20.10
2022-08-25T02:38:49.699Z,23.50
2022-08-25T02:41:20.998Z,21.40
2022-08-25T02:43:50.078Z,25.70
2022-08-25T02:46:20.335Z,21.60
2022-08-25T02:48:48.781Z,20.50
2022-08-25T02:51:17.028Z,21.20
2022-08-25T02:53:47.154Z,20.50
2022-08-25T02:56:16.565Z,24.90
2022-08-25T02:58:46.077Z,23.30
2022-08-25T03:01:15.781Z,20.70
2022-08-25T03:03:46.111Z,19.30
2022-08-25T03:06:18.994Z,22.80
2022-08-25T03:08:47.239Z,20.10
2022-08-25T03:11:15.206Z,15.60
2022-08-25T03:13:43.200Z,22.50
2022-08-25T03:16:12.449Z,20.70
2022-08-25T03:18:42.540Z,24.70
2022-08-25T03:21:12.468Z,20.00
2022-08-25T03:23:41.963Z,22.60
2022-08-25T03:26:28.617Z,23.00
2022-08-25T03:28:57.248Z,26.30
2022-08-25T03:31:28.703Z,26.10
2022-08-25T03:33:56.733Z,21.80
2022-08-25T03:36:25.681Z,28.20
2022-08-25T03:38:54.019Z,23.90
2022-08-25T03:41:28.055Z,22.20
2022-08-25T03:43:57.500Z,27.10
2022-08-25T03:46:34.466Z,23.40
2022-08-25T03:49:06.706Z,25.70
2022-08-25T03:51:43.061Z,26.30
2022-08-25T03:54:11.814Z,26.30
2022-08-25T03:56:40.485Z,27.00
2022-08-25T03:59:10.068Z,26.30
2022-08-25T04:01:40.535Z,24.90
2022-08-25T04:04:10.569Z,21.70
2022-08-25T04:06:40.060Z,22.90
2022-08-25T04:09:08.479Z,29.90
2022-08-25T04:11:37.053Z,25.30
2022-08-25T04:14:05.940Z,23.00
2022-08-25T04:16:35.383Z,22.60
2022-08-25T04:19:08.091Z,24.20
2022-08-25T04:21:38.967Z,25.40
2022-08-25T04:24:09.989Z,28.60
2022-08-25T04:26:42.636Z,29.40
2022-08-25T04:29:12.209Z,17.30
2022-08-25T04:31:42.068Z,18.60
2022-08-25T04:34:28.370Z,16.90
2022-08-25T04:37:03.299Z,19.10
2022-08-25T04:39:32.194Z,19.00
2022-08-25T04:42:01.100Z,19.80
2022-08-25T04:44:32.001Z,21.10
2022-08-25T04:47:00.567Z,17.40
2022-08-25T04:49:28.865Z,20.00
2022-08-25T04:51:57.697Z,24.30
2022-08-25T04:54:25.917Z,24.70
2022-08-25T04:56:58.414Z,22.30
2022-08-25T04:59:30.438Z,21.90
2022-08-25T05:02:03.480Z,21.10
2022-08-25T05:04:33.411Z,28.50
2022-08-25T05:07:02.279Z,23.40
2022-08-25T05:09:32.278Z,22.20
2022-08-25T05:12:02.870Z,28.80
2022-08-25T05:14:32.476Z,21.50
2022-08-25T05:17:00.991Z,24.00
2022-08-25T05:19:29.371Z,24.90
2022-08-25T05:21:57.791Z,25.50
2022-08-25T05:24:27.046Z,30.00
2022-08-25T05:26:55.171Z,26.70
2022-08-25T05:29:23.641Z,25.70
2022-08-25T05:31:51.902Z,25.30
2022-08-25T05:34:20.149Z,27.10
2022-08-25T05:36:49.222Z,25.90
2022-08-25T05:39:17.556Z,28.20
2022-08-25T05:41:45.538Z,26.70
2022-08-25T05:44:15.875Z,27.50
2022-08-25T05:46:45.951Z,28.00
2022-08-25T05:49:13.887Z,31.60
2022-08-25T05:51:41.833Z,22.20
2022-08-25T05:54:09.710Z,31.20
2022-08-25T05:56:37.740Z,27.40
2022-08-25T05:59:09.238Z,25.20
2022-08-25T06:01:56.585Z,29.70
2022-08-25T06:04:24.781Z,30.00
2022-08-25T06:06:55.054Z,30.20
2022-08-25T06:09:24.441Z,23.20
2022-08-25T06:11:55.213Z,21.70
2022-08-25T06:14:24.188Z,27.90
2022-08-25T06:16:56.085Z,32.40
2022-08-25T06:19:24.561Z,27.60
2022-08-25T06:21:57.286Z,30.00
2022-08-25T06:24:27.449Z,30.60
2022-08-25T06:26:56.617Z,37.80
2022-08-25T06:29:25.537Z,31.50
2022-08-25T06:31:53.597Z,34.90
2022-08-25T06:34:24.136Z,26.30
2022-08-25T06:36:55.422Z,35.60
2022-08-25T06:39:27.932Z,31.60
2022-08-25T06:41:56.950Z,27.90
2022-08-25T06:44:27.863Z,32.10
2022-08-25T06:46:55.976Z,32.90
2022-08-25T06:49:31.866Z,34.20
2022-08-25T06:52:04.011Z,29.90
2022-08-25T06:54:31.910Z,32.50
2022-08-25T06:56:59.825Z,37.50
2022-08-25T06:59:32.256Z,40.20
2022-08-25T07:02:07.696Z,31.40
2022-08-25T07:04:36.315Z,34.50
2022-08-25T07:07:04.683Z,29.40
2022-08-25T07:09:35.332Z,28.60
2022-08-25T07:12:08.898Z,38.30
2022-08-25T07:14:37.140Z,38.00
2022-08-25T07:17:10.593Z,32.80
2022-08-25T07:19:41.280Z,28.30
2022-08-25T07:22:09.561Z,33.10
2022-08-25T07:24:37.615Z,31.00
2022-08-25T07:27:05.670Z,37.70
2022-08-25T07:29:36.849Z,31.30
2022-08-25T07:32:15.869Z,34.30
2022-08-25T07:35:02.416Z,35.40
2022-08-25T07:37:47.700Z,34.60
2022-08-25T07:40:23.564Z,30.30
2022-08-25T07:42:56.863Z,34.80
2022-08-25T07:45:31.740Z,32.30
2022-08-25T07:48:11.356Z,32.40
2022-08-25T07:50:45.473Z,29.50
2022-08-25T07:53:15.349Z,36.00
2022-08-25T07:55:45.144Z,31.90
2022-08-25T07:58:15.811Z,39.20
2022-08-25T08:00:48.091Z,26.00
2022-08-25T08:03:35.316Z,26.60
2022-08-25T08:06:10.358Z,31.30
2022-08-25T08:08:42.675Z,32.80
2022-08-25T08:11:24.502Z,31.10
2022-08-25T08:14:46.285Z,31.90
2022-08-25T08:17:14.364Z,30.50
2022-08-25T08:19:46.543Z,32.30
2022-08-25T08:22:17.720Z,38.70
2022-08-25T08:24:54.578Z,36.40
2022-08-25T08:27:25.012Z,37.80
2022-08-25T08:29:53.839Z,41.70
2022-08-25T08:32:25.279Z,31.70
2022-08-25T08:34:59.863Z,34.30
2022-08-25T08:37:28.174Z,33.60
2022-08-25T08:39:56.451Z,35.40
2022-08-25T08:42:49.142Z,34.50
2022-08-25T08:45:30.210Z,34.00
2022-08-25T08:48:43.260Z,30.80
2022-08-25T08:51:19.512Z,41.00
2022-08-25T08:54:07.047Z,36.90
2022-08-25T08:56:48.109Z,33.80
2022-08-25T08:59:28.841Z,43.00
2022-08-25T09:02:01.886Z,40.10
2022-08-25T09:04:39.548Z,39.50
2022-08-25T09:07:14.623Z,40.60
2022-08-25T09:09:45.668Z,35.60
2022-08-25T09:12:21.899Z,31.70
2022-08-25T09:15:12.593Z,27.90
2022-08-25T09:17:54.612Z,33.00
2022-08-25T09:20:39.020Z,37.40
2022-08-25T09:26:11.319Z,36.10
2022-08-25T09:28:51.743Z,36.20
2022-08-25T09:31:27.591Z,32.40
2022-08-25T09:34:01.353Z,36.10
2022-08-25T09:36:36.924Z,41.90
2022-08-25T09:39:07.561Z,39.80
2022-08-25T09:41:57.420Z,35.90
2022-08-25T09:44:41.546Z,33.30
2022-08-25T09:47:18.337Z,37.70
2022-08-25T09:49:51.882Z,44.60
2022-08-25T09:52:32.101Z,37.20
2022-08-25T09:55:06.294Z,31.00
2022-08-25T09:57:43.237Z,33.50
2022-08-25T10:00:27.739Z,39.50
2022-08-25T10:03:08.276Z,31.70
2022-08-25T10:05:49.488Z,43.70
2022-08-25T10:08:40.946Z,33.70
2022-08-25T10:11:14.778Z,48.60
2022-08-25T10:13:49.412Z,34.20
2022-08-25T10:16:34.076Z,38.00
2022-08-25T10:19:25.963Z,36.40
2022-08-25T10:22:32.593Z,33.90
2022-08-25T10:25:01.118Z,36.00
2022-08-25T10:27:52.800Z,35.50
2022-08-25T10:30:28.523Z,30.70
2022-08-25T10:33:24.684Z,37.30
2022-08-25T10:36:11.738Z,41.30
2022-08-25T10:38:43.105Z,34.80
2022-08-25T10:41:11.257Z,32.90
2022-08-25T10:43:52.094Z,36.10
2022-08-25T10:46:26.092Z,34.70
2022-08-25T10:49:23.866Z,36.00
2022-08-25T10:52:13.733Z,41.70
2022-08-25T10:55:03.365Z,37.40
2022-08-25T10:57:52.788Z,39.60
2022-08-25T11:00:31.384Z,36.10
2022-08-25T11:03:08.978Z,39.40
2022-08-25T11:05:55.848Z,44.40
2022-08-25T11:08:38.720Z,45.30
2022-08-25T11:11:21.635Z,29.30
2022-08-25T11:13:59.112Z,34.70
2022-08-25T11:17:07.648Z,29.40
2022-08-25T11:19:38.021Z,43.30
2022-08-25T11:22:24.107Z,28.40
2022-08-25T11:25:12.791Z,32.20
2022-08-25T11:27:57.736Z,34.60
2022-08-25T11:30:26.511Z,27.80
2022-08-25T11:32:56.213Z,36.00
2022-08-25T11:35:39.075Z,32.40
2022-08-25T11:38:35.897Z,36.80
2022-08-25T11:41:48.598Z,27.30
2022-08-25T11:44:53.687Z,33.60
2022-08-25T11:48:06.725Z,34.20
2022-08-25T11:50:53.971Z,39.00
2022-08-25T11:53:28.239Z,35.80
2022-08-25T11:56:04.472Z,38.90
2022-08-25T11:58:49.832Z,38.40
2022-08-25T12:01:40.290Z,32.30
2022-08-25T12:04:45.116Z,36.00
2022-08-25T12:07:22.020Z,41.80
2022-08-25T12:09:55.508Z,32.90
2022-08-25T12:14:51.949Z,40.80
2022-08-25T12:17:37.445Z,37.60
2022-08-25T12:20:08.255Z,37.70
2022-08-25T12:22:36.234Z,37.70
2022-08-25T12:25:11.725Z,34.80
2022-08-25T12:28:00.714Z,40.10
2022-08-25T12:30:36.589Z,32.00
2022-08-25T12:33:34.146Z,40.10
2022-08-25T12:36:07.149Z,33.00
2022-08-25T12:38:52.275Z,34.80
2022-08-25T12:41:54.634Z,37.00
2022-08-25T12:44:47.360Z,33.70
2022-08-25T12:47:30.568Z,35.00
2022-08-25T12:50:37.048Z,28.00
2022-08-25T12:53:17.885Z,33.60
2022-08-25T12:55:53.046Z,36.50
2022-08-25T12:58:59.928Z,34.30
2022-08-25T13:02:07.810Z,32.50
2022-08-25T13:05:04.033Z,36.80
2022-08-25T13:07:39.646Z,38.70
2022-08-25T13:10:24.024Z,34.60
2022-08-25T13:13:33.545Z,26.20
2022-08-25T13:16:08.805Z,38.50
2022-08-25T13:18:39.731Z,24.30
2022-08-25T13:21:20.780Z,34.60
2022-08-25T13:23:54.126Z,32.40
2022-08-25T13:26:38.145Z,40.80
2022-08-25T13:29:22.318Z,32.50
2022-08-25T13:31:58.765Z,40.40
2022-08-25T13:34:34.750Z,30.00
2022-08-25T13:37:30.238Z,46.50
2022-08-25T13:40:25.931Z,32.00
2022-08-25T13:43:02.796Z,36.50
2022-08-25T13:45:47.839Z,43.00
2022-08-25T13:48:38.491Z,32.20
2022-08-25T13:51:36.848Z,35.00
2022-08-25T13:54:08.931Z,36.00
2022-08-25T13:56:41.597Z,46.70
2022-08-25T13:59:31.425Z,34.70
2022-08-25T14:02:00.258Z,35.80
2022-08-25T14:04:50.618Z,28.90
2022-08-25T14:07:20.187Z,45.00
2022-08-25T14:09:52.452Z,50.80
2022-08-25T14:13:15.911Z,39.40
2022-08-25T14:15:47.005Z,36.80
2022-08-25T14:18:27.139Z,34.30
2022-08-25T14:21:16.876Z,38.10
2022-08-25T14:23:58.974Z,37.10
2022-08-25T14:26:28.777Z,33.60
2022-08-25T14:28:56.820Z,34.80
2022-08-25T14:31:30.143Z,34.20
2022-08-25T14:33:59.622Z,38.80
2022-08-25T14:36:30.397Z,42.50
2022-08-25T14:39:00.251Z,35.70
2022-08-25T14:41:30.773Z,40.80
2022-08-25T14:43:59.042Z,42.50
2022-08-25T14:46:30.038Z,38.60
2022-08-25T14:49:11.940Z,39.60
2022-08-25T14:51:42.451Z,36.30
2022-08-25T14:54:15.131Z,38.60
2022-08-25T14:56:43.937Z,34.80
2022-08-25T14:59:12.209Z,30.40
2022-08-25T15:01:40.790Z,32.90
2022-08-25T15:04:16.008Z,27.90
2022-08-25T15:06:46.868Z,45.40
2022-08-25T15:09:16.761Z,48.90
2022-08-25T15:11:50.618Z,36.70
2022-08-25T15:14:28.814Z,37.40
2022-08-25T15:17:14.858Z,44.60
2022-08-25T15:19:47.718Z,31.70
2022-08-25T15:22:17.016Z,42.10
2022-08-25T15:24:45.257Z,39.70
2022-08-25T15:27:19.675Z,38.60
2022-08-25T15:29:48.266Z,33.40
2022-08-25T15:32:18.663Z,45.40
2022-08-25T15:34:46.835Z,44.20
2022-08-25T15:37:16.644Z,51.50
2022-08-25T15:39:46.771Z,53.10
2022-08-25T15:42:16.688Z,35.50
2022-08-25T15:44:52.880Z,34.60
2022-08-25T15:47:22.690Z,47.90
2022-08-25T15:49:51.608Z,42.00
2022-08-25T15:52:19.512Z,42.90
2022-08-25T15:54:47.561Z,43.40
2022-08-25T15:57:24.341Z,34.70
2022-08-25T15:59:53.204Z,36.90
2022-08-25T16:02:22.085Z,31.20
2022-08-25T16:04:51.595Z,49.70
2022-08-25T16:07:20.336Z,35.80
2022-08-25T16:09:50.664Z,40.50
2022-08-25T16:12:19.183Z,38.70
2022-08-25T16:14:47.566Z,34.10
2022-08-25T16:17:16.587Z,46.40
2022-08-25T16:19:44.898Z,32.90
2022-08-25T16:22:13.104Z,35.90
2022-08-25T16:24:44.504Z,39.60
2022-08-25T16:27:14.284Z,41.20
2022-08-25T16:29:44.336Z,63.10
2022-08-25T16:32:14.135Z,54.70
2022-08-25T16:34:44.219Z,38.10
2022-08-25T16:37:14.662Z,40.90
2022-08-25T16:39:46.073Z,37.70
2022-08-25T16:42:14.595Z,43.10
2022-08-25T16:45:13.921Z,35.90
2022-08-25T16:47:42.702Z,44.70
2022-08-25T16:50:11.471Z,56.00
2022-08-25T16:52:59.338Z,31.70
2022-08-25T16:55:38.646Z,38.00
2022-08-25T16:58:08.738Z,25.40
2022-08-25T17:00:41.585Z,40.00
2022-08-25T17:03:13.134Z,29.20
2022-08-25T17:05:42.866Z,34.30
2022-08-25T17:08:30.595Z,44.30
2022-08-25T17:11:14.820Z,45.20
2022-08-25T17:13:47.781Z,33.20
2022-08-25T17:16:19.386Z,36.40
2022-08-25T17:18:48.744Z,26.40
2022-08-25T17:21:23.817Z,31.40
2022-08-25T17:23:53.312Z,28.90
2022-08-25T17:26:27.567Z,34.70
2022-08-25T17:28:59.376Z,36.90
2022-08-25T17:31:30.011Z,34.80
2022-08-25T17:33:59.586Z,29.40
2022-08-25T17:36:28.631Z,36.60
2022-08-25T17:38:59.737Z,31.20
2022-08-25T17:41:27.692Z,28.30
2022-08-25T17:43:55.710Z,26.90
2022-08-25T17:46:24.341Z,28.80
2022-08-25T17:48:53.189Z,49.10
2022-08-25T17:51:23.133Z,37.70
2022-08-25T17:53:53.029Z,36.10
2022-08-25T17:56:23.543Z,32.80
2022-08-25T17:58:56.104Z,26.40
2022-08-25T18:01:27.629Z,35.50
2022-08-25T18:03:57.529Z,35.60
2022-08-25T18:06:29.504Z,37.30
2022-08-25T18:09:01.549Z,28.80
2022-08-25T18:11:31.547Z,29.40
2022-08-25T18:14:02.503Z,32.80
2022-08-25T18:16:32.524Z,25.30
2022-08-25T18:19:02.716Z,35.70
2022-08-25T18:21:35.106Z,30.00
2022-08-25T18:24:03.364Z,28.40
2022-08-25T18:26:32.297Z,27.90
2022-08-25T18:29:00.543Z,33.20
2022-08-25T18:31:31.840Z,31.10
2022-08-25T18:34:00.244Z,23.20
2022-08-25T18:36:28.806Z,22.80
2022-08-25T18:39:15.494Z,27.90
2022-08-25T18:41:45.086Z,22.90
2022-08-25T18:44:16.443Z,27.20
2022-08-25T18:46:45.532Z,24.80
2022-08-25T18:49:17.668Z,25.30
2022-08-25T18:51:47.389Z,22.10
2022-08-25T18:54:23.321Z,32.40
2022-08-25T18:56:54.857Z,26.40
2022-08-25T18:59:23.699Z,24.10
2022-08-25T19:01:54.236Z,25.90
2022-08-25T19:04:31.336Z,25.80
2022-08-25T19:07:02.931Z,24.60
2022-08-25T19:09:32.075Z,28.00
2022-08-25T19:12:25.459Z,24.20
2022-08-25T19:14:53.573Z,26.60
2022-08-25T19:17:24.666Z,25.50
2022-08-25T19:19:53.007Z,22.70
2022-08-25T19:22:40.314Z,25.40
2022-08-25T19:25:10.266Z,24.80
2022-08-25T19:27:38.935Z,30.30
2022-08-25T19:30:10.183Z,32.20
2022-08-25T19:32:41.877Z,23.80
2022-08-25T19:35:32.469Z,26.50
2022-08-25T19:38:03.226Z,25.80
2022-08-25T19:40:35.927Z,36.70
2022-08-25T19:43:07.530Z,25.00
2022-08-25T19:45:36.778Z,20.40
2022-08-25T19:48:05.924Z,24.00
2022-08-25T19:50:34.905Z,19.70
2022-08-25T19:53:03.911Z,20.90
2022-08-25T19:55:32.316Z,21.40
2022-08-25T19:58:00.674Z,27.10
2022-08-25T20:00:32.861Z,26.90
2022-08-25T20:03:02.360Z,29.80
2022-08-25T20:05:31.459Z,22.00
2022-08-25T20:07:59.904Z,21.60
2022-08-25T20:10:32.740Z,22.00
2022-08-25T20:13:09.368Z,29.50
2022-08-25T20:15:39.051Z,24.10
2022-08-25T20:18:08.257Z,20.50
2022-08-25T20:20:36.840Z,21.20
2022-08-25T20:23:24.221Z,23.60
2022-08-25T20:25:53.194Z,20.80
2022-08-25T20:28:21.385Z,21.40
2022-08-25T20:30:49.549Z,20.40
2022-08-25T20:33:22.506Z,19.30
2022-08-25T20:35:53.080Z,18.70
2022-08-25T20:38:21.569Z,23.90
2022-08-25T20:40:49.590Z,17.50
2022-08-25T20:43:18.152Z,20.90
2022-08-25T20:45:49.280Z,19.80
2022-08-25T20:48:17.976Z,19.40
2022-08-25T20:50:46.113Z,19.70
2022-08-25T20:53:25.795Z,19.20
2022-08-25T20:55:53.895Z,25.00
2022-08-25T20:58:21.953Z,23.50
2022-08-25T21:00:51.644Z,21.10
2022-08-25T21:03:20.813Z,23.80
2022-08-25T21:05:48.699Z,20.90
2022-08-25T21:08:22.151Z,25.90
2022-08-25T21:10:51.988Z,21.60
2022-08-25T21:13:19.917Z,17.20
2022-08-25T21:15:50.715Z,18.70
2022-08-25T21:18:18.773Z,18.60
2022-08-25T21:20:47.330Z,20.30
2022-08-25T21:23:15.340Z,26.90
2022-08-25T21:25:43.691Z,17.40
2022-08-25T21:28:11.699Z,19.10
2022-08-25T21:30:44.813Z,17.90
2022-08-25T21:33:15.614Z,21.10
2022-08-25T21:35:44.066Z,18.20
2022-08-25T21:38:11.937Z,17.30
2022-08-25T21:41:39.995Z,15.60
2022-08-25T21:45:35.801Z,23.00
2022-08-25T21:49:24.842Z,15.70
2022-08-25T21:53:12.809Z,17.70
2022-08-25T21:57:04.207Z,18.30
2022-08-25T22:00:52.562Z,15.20
2022-08-25T22:03:21.329Z,19.10
2022-08-25T22:05:49.402Z,22.40
2022-08-25T22:08:17.817Z,14.40
2022-08-25T22:10:47.626Z,14.00
2022-08-25T22:13:15.537Z,17.10
2022-08-25T22:15:46.314Z,11.30
2022-08-25T22:18:21.246Z,17.10
2022-08-25T22:20:50.427Z,13.30
2022-08-25T22:23:20.135Z,23.00
2022-08-25T22:25:48.752Z,14.80
2022-08-25T22:28:16.800Z,22.20
2022-08-25T22:30:44.833Z,20.40
2022-08-25T22:33:13.492Z,15.90
2022-08-25T22:35:41.674Z,14.70
2022-08-25T22:38:12.475Z,13.70
2022-08-25T22:40:41.312Z,18.40
2022-08-25T22:43:10.912Z,19.30
2022-08-25T22:45:39.318Z,17.90
2022-08-25T22:48:07.364Z,18.80
2022-08-25T22:50:36.680Z,21.60
2022-08-25T22:53:04.695Z,23.30
2022-08-25T22:55:32.883Z,18.90
2022-08-25T22:58:01.076Z,17.10
2022-08-25T23:00:28.984Z,17.40
2022-08-25T23:02:57.066Z,20.70
2022-08-25T23:05:24.984Z,19.10
2022-08-25T23:07:52.931Z,21.10
2022-08-25T23:10:22.839Z,16.30
2022-08-25T23:12:51.035Z,13.70
2022-08-25T23:15:19.490Z,16.20
2022-08-25T23:17:47.519Z,15.70
2022-08-25T23:20:35.207Z,17.50
2022-08-25T23:23:03.283Z,11.70
2022-08-25T23:25:31.435Z,14.10
2022-08-25T23:27:59.324Z,19.00
2022-08-25T23:30:27.323Z,16.80
2022-08-25T23:32:56.533Z,23.50
2022-08-25T23:35:24.481Z,17.70
2022-08-25T23:37:52.352Z,19.30
2022-08-25T23:40:21.743Z,13.60
2022-08-25T23:42:50.494Z,13.20
2022-08-25T23:45:18.566Z,17.00
2022-08-25T23:47:46.562Z,17.60
2022-08-25T23:50:17.911Z,17.10
2022-08-25T23:52:46.330Z,11.20
2022-08-25T23:55:15.043Z,12.80
2022-08-25T23:57:43.589Z,12.00
